Time;durP1;ratioP1;P1;durP2;ratioP2;P2;SDS_P1;SDS_P2;PMS_P1;PMS_P2;Temp;Humidity;BMP_temperature;BMP_pressure;BME280_temperature;BME280_humidity;BME280_pressure;Samples;Min_cycle;Max_cycle;Signal;HPM_P1;HPM_P2
2023/05/17 00:00:19;;;;;;;1.45;0.68;;;19.50;72.90;;;;;;5162848;27;45313;-73
2023/05/17 00:02:46;;;;;;;0.85;0.60;;;19.50;73.30;;;;;;5166815;27;45389;-73
2023/05/17 00:05:12;;;;;;;1.00;0.57;;;19.50;73.40;;;;;;5162215;27;46373;-74
2023/05/17 00:07:39;;;;;;;0.90;0.50;;;19.50;73.20;;;;;;5158348;27;45360;-73
2023/05/17 00:10:07;;;;;;;2.38;0.50;;;19.50;73.50;;;;;;5169716;27;45261;-74
2023/05/17 00:12:35;;;;;;;2.30;0.60;;;19.50;73.90;;;;;;5167057;27;45251;-74
2023/05/17 00:15:02;;;;;;;1.58;0.63;;;19.50;73.80;;;;;;5166123;27;46351;-73
2023/05/17 00:17:29;;;;;;;1.17;0.50;;;19.50;73.60;;;;;;5174499;27;45995;-73
2023/05/17 00:19:56;;;;;;;2.50;0.60;;;19.50;72.60;;;;;;5158391;27;45235;-74
2023/05/17 00:22:22;;;;;;;1.45;0.60;;;19.50;72.10;;;;;;5167256;27;45341;-73
2023/05/17 00:24:49;;;;;;;1.17;0.50;;;19.50;71.20;;;;;;5165042;27;47806;-73
2023/05/17 00:27:16;;;;;;;0.80;0.47;;;19.50;71.30;;;;;;5165811;27;45513;-73
2023/05/17 00:29:44;;;;;;;0.47;0.40;;;19.50;71.00;;;;;;5153960;27;45445;-73
2023/05/17 00:32:11;;;;;;;0.47;0.40;;;19.50;70.70;;;;;;5162920;27;45295;-73
2023/05/17 00:34:37;;;;;;;1.05;0.60;;;19.50;70.50;;;;;;5166829;27;46576;-73
2023/05/17 00:37:05;;;;;;;1.38;0.65;;;19.50;70.10;;;;;;5164379;27;45429;-73
2023/05/17 00:39:31;;;;;;;0.90;0.70;;;19.50;69.90;;;;;;5166027;27;45453;-73
2023/05/17 00:41:59;;;;;;;1.42;0.57;;;19.50;69.90;;;;;;5164080;27;45540;-73
2023/05/17 00:44:26;;;;;;;1.52;0.68;;;19.50;69.70;;;;;;5163366;27;47124;-73
2023/05/17 00:46:54;;;;;;;1.10;0.63;;;19.50;69.80;;;;;;5158191;27;45558;-73
2023/05/17 00:49:21;;;;;;;1.77;0.60;;;19.50;70.00;;;;;;5153241;27;45490;-73
2023/05/17 00:51:48;;;;;;;2.38;0.52;;;19.50;69.90;;;;;;5165656;27;45374;-73
2023/05/17 00:54:16;;;;;;;2.30;0.85;;;19.50;72.20;;;;;;5163316;27;47488;-73
2023/05/17 00:56:43;;;;;;;0.80;0.50;;;19.50;73.60;;;;;;5164456;27;45449;-73
2023/05/17 00:59:12;;;;;;;0.73;0.50;;;19.50;74.30;;;;;;5164282;27;45417;-73
2023/05/17 01:01:42;;;;;;;1.40;0.85;;;19.50;75.00;;;;;;5160300;27;45496;-73
2023/05/17 01:04:10;;;;;;;1.60;0.73;;;19.50;74.30;;;;;;5159323;27;48357;-73
2023/05/17 01:06:37;;;;;;;1.40;0.60;;;19.50;74.70;;;;;;5154830;27;45596;-73
2023/05/17 01:09:06;;;;;;;2.35;0.63;;;19.50;75.00;;;;;;5165956;27;45323;-73
2023/05/17 01:11:42;;;;;;;1.05;0.55;;;19.50;74.80;;;;;;5167464;27;45489;-73
2023/05/17 01:14:24;;;;;;;0.73;0.50;;;19.50;75.00;;;;;;5162402;27;46188;-73
2023/05/17 01:16:56;;;;;;;1.85;0.88;;;19.50;75.00;;;;;;5171619;27;45278;-73
2023/05/17 01:19:45;;;;;;;1.52;0.70;;;19.50;75.00;;;;;;5165770;27;45426;-73
2023/05/17 01:22:20;;;;;;;1.20;0.50;;;19.50;75.40;;;;;;5166156;27;45342;-73
2023/05/17 01:25:07;;;;;;;2.78;0.75;;;19.50;75.20;;;;;;5164718;27;48389;-73
2023/05/17 01:27:39;;;;;;;1.48;0.60;;;19.50;76.00;;;;;;5164173;27;45635;-73
2023/05/17 01:30:09;;;;;;;1.45;0.70;;;19.50;75.00;;;;;;5165693;27;45216;-73
2023/05/17 01:32:36;;;;;;;1.52;0.70;;;19.50;75.70;;;;;;5164732;27;45243;-73
2023/05/17 01:35:04;;;;;;;1.98;0.70;;;19.40;76.10;;;;;;5164391;27;46865;-73
2023/05/17 01:37:31;;;;;;;1.25;0.60;;;19.40;74.90;;;;;;5163709;27;45427;-73
2023/05/17 01:39:58;;;;;;;2.55;0.70;;;19.40;74.00;;;;;;5165682;27;45519;-73
2023/05/17 01:42:30;;;;;;;0.75;0.60;;;19.40;73.50;;;;;;5165481;27;45440;-73
2023/05/17 01:45:04;;;;;;;1.25;0.50;;;19.40;73.50;;;;;;5165153;27;48437;-73
2023/05/17 01:47:38;;;;;;;1.45;0.60;;;19.40;74.20;;;;;;5156459;27;45421;-73
2023/05/17 01:50:08;;;;;;;4.00;1.05;;;19.40;72.90;;;;;;5154324;27;45393;-73
2023/05/17 01:52:38;;;;;;;1.40;0.80;;;19.40;72.50;;;;;;5163093;27;45333;-73
2023/05/17 01:55:09;;;;;;;1.05;0.70;;;19.40;74.00;;;;;;5164258;27;47783;-73
2023/05/17 01:57:36;;;;;;;0.80;0.60;;;19.40;74.70;;;;;;5161492;27;45413;-73
2023/05/17 02:00:08;;;;;;;1.02;0.60;;;19.40;74.90;;;;;;5167257;27;45483;-73
2023/05/17 02:02:35;;;;;;;2.85;0.80;;;19.40;75.00;;;;;;5163516;27;45580;-73
2023/05/17 02:05:02;;;;;;;1.30;0.60;;;19.40;74.80;;;;;;5170456;27;46693;-73
2023/05/17 02:07:28;;;;;;;2.92;0.68;;;19.40;74.90;;;;;;5159595;27;45314;-73
2023/05/17 02:09:55;;;;;;;3.65;0.90;;;19.50;74.00;;;;;;5163131;27;45592;-73
2023/05/17 02:12:22;;;;;;;3.88;0.70;;;19.40;73.20;;;;;;5164835;27;45285;-73
2023/05/17 02:14:49;;;;;;;1.75;0.70;;;19.40;73.30;;;;;;5164265;27;48038;-73
2023/05/17 02:17:17;;;;;;;2.25;0.80;;;19.40;72.70;;;;;;5164416;27;45445;-73
2023/05/17 02:19:44;;;;;;;1.33;0.80;;;19.40;72.00;;;;;;5165026;27;45252;-73
2023/05/17 02:22:11;;;;;;;1.77;0.82;;;19.40;72.00;;;;;;5172408;27;45275;-73
2023/05/17 02:24:37;;;;;;;2.97;0.95;;;19.40;72.00;;;;;;5170125;27;47541;-73
2023/05/17 02:27:05;;;;;;;1.67;0.82;;;19.40;71.50;;;;;;5168100;27;45660;-73
2023/05/17 02:29:32;;;;;;;1.83;0.70;;;19.50;72.00;;;;;;5164129;27;45312;-73
2023/05/17 02:31:58;;;;;;;3.58;1.00;;;19.40;72.80;;;;;;5163515;27;45500;-73
2023/05/17 02:34:26;;;;;;;4.00;0.93;;;19.40;73.50;;;;;;5176113;27;46390;-73
2023/05/17 02:36:53;;;;;;;1.60;0.80;;;19.40;74.00;;;;;;5167462;27;45368;-73
2023/05/17 02:39:20;;;;;;;0.98;0.60;;;19.40;74.00;;;;;;5170152;27;45542;-73
2023/05/17 02:41:47;;;;;;;3.50;0.82;;;19.40;74.50;;;;;;5167370;27;45397;-73
2023/05/17 02:44:13;;;;;;;2.03;0.75;;;19.40;73.90;;;;;;5165888;27;47622;-73
2023/05/17 02:46:40;;;;;;;1.83;0.85;;;19.40;74.50;;;;;;5162571;27;46095;-73
2023/05/17 02:49:07;;;;;;;1.73;0.80;;;19.40;74.40;;;;;;5157679;27;45264;-73
2023/05/17 02:51:35;;;;;;;1.27;0.60;;;19.40;74.00;;;;;;5162694;27;45209;-73
2023/05/17 02:54:02;;;;;;;2.58;0.80;;;19.40;73.60;;;;;;5151253;27;46408;-73
2023/05/17 02:56:28;;;;;;;5.28;0.90;;;19.40;72.80;;;;;;5160656;27;45561;-73
2023/05/17 02:58:56;;;;;;;2.30;0.80;;;19.40;73.00;;;;;;5161367;27;45325;-73
2023/05/17 03:01:23;;;;;;;3.65;0.80;;;19.40;73.20;;;;;;5156191;27;45450;-73
2023/05/17 03:03:49;;;;;;;1.92;0.80;;;19.40;72.90;;;;;;5166518;27;47941;-73
2023/05/17 03:06:16;;;;;;;3.15;0.90;;;19.40;72.70;;;;;;5165520;27;45442;-73
2023/05/17 03:08:44;;;;;;;1.20;0.80;;;19.40;72.40;;;;;;5156382;27;45341;-73
2023/05/17 03:11:11;;;;;;;1.85;1.10;;;19.40;72.10;;;;;;5167810;27;45402;-74
2023/05/17 03:13:38;;;;;;;2.08;0.90;;;19.40;72.70;;;;;;5166550;27;46326;-73
2023/05/17 03:16:05;;;;;;;3.03;0.75;;;19.40;73.40;;;;;;5166141;27;45367;-73
2023/05/17 03:18:32;;;;;;;2.60;0.85;;;19.40;73.70;;;;;;5163225;27;45522;-73
2023/05/17 03:20:59;;;;;;;1.23;0.75;;;19.40;74.10;;;;;;5164257;27;45348;-73
2023/05/17 03:23:25;;;;;;;3.67;1.10;;;19.40;74.20;;;;;;5163822;27;48432;-73
2023/05/17 03:25:53;;;;;;;2.70;0.90;;;19.30;74.50;;;;;;5165157;27;45285;-73
2023/05/17 03:28:20;;;;;;;2.72;0.70;;;19.40;74.60;;;;;;5164310;27;45521;-73
2023/05/17 03:30:47;;;;;;;1.92;1.00;;;19.40;74.90;;;;;;5165889;27;45573;-73
2023/05/17 03:33:14;;;;;;;2.10;0.90;;;19.40;74.70;;;;;;5163782;27;46900;-73
2023/05/17 03:35:40;;;;;;;3.40;0.98;;;19.30;74.90;;;;;;5160089;27;45311;-73
2023/05/17 03:38:08;;;;;;;7.78;1.38;;;19.30;73.90;;;;;;5166807;27;45282;-73
2023/05/17 03:40:35;;;;;;;2.95;1.10;;;19.30;73.50;;;;;;5160628;27;45343;-73
2023/05/17 03:43:03;;;;;;;1.50;0.90;;;19.30;73.80;;;;;;5159176;27;45348;-73
2023/05/17 03:45:30;;;;;;;2.85;1.10;;;19.30;73.20;;;;;;5160195;27;45296;-74
2023/05/17 03:47:56;;;;;;;3.28;1.30;;;19.30;73.00;;;;;;5163873;27;45254;-73
2023/05/17 03:50:23;;;;;;;1.77;0.95;;;19.30;72.60;;;;;;5164241;27;45472;-73
2023/05/17 03:52:50;;;;;;;3.65;1.10;;;19.30;72.40;;;;;;5163330;27;48610;-74
2023/05/17 03:55:17;;;;;;;4.03;1.15;;;19.30;72.20;;;;;;5156046;27;45393;-74
2023/05/17 03:57:44;;;;;;;1.98;0.93;;;19.30;71.70;;;;;;5163507;27;45326;-74
2023/05/17 04:00:19;;;;;;;4.22;1.08;;;19.30;71.40;;;;;;5166837;27;45299;-73
2023/05/17 04:02:46;;;;;;;5.38;1.00;;;19.30;71.50;;;;;;5162282;27;45692;-74
2023/05/17 04:05:13;;;;;;;3.00;1.15;;;19.30;72.30;;;;;;5162365;27;45418;-73
2023/05/17 04:07:40;;;;;;;1.77;1.02;;;19.30;72.60;;;;;;5165120;27;45351;-74
2023/05/17 04:10:07;;;;;;;3.40;1.10;;;19.30;72.80;;;;;;5167161;27;45446;-74
2023/05/17 04:12:34;;;;;;;3.60;1.00;;;19.30;73.00;;;;;;5165899;27;46408;-74
2023/05/17 04:15:01;;;;;;;3.35;1.20;;;19.30;73.40;;;;;;5165551;27;45407;-73
2023/05/17 04:17:29;;;;;;;3.72;1.25;;;19.30;73.20;;;;;;5166738;27;45418;-74
2023/05/17 04:19:56;;;;;;;1.80;0.90;;;19.30;73.60;;;;;;5167374;27;45351;-74
2023/05/17 04:22:23;;;;;;;2.97;1.13;;;19.30;73.50;;;;;;5166649;27;46432;-73
2023/05/17 04:24:50;;;;;;;2.28;0.90;;;19.30;73.80;;;;;;5165723;27;45297;-73
2023/05/17 04:27:16;;;;;;;1.27;0.90;;;19.30;73.30;;;;;;5168467;27;45342;-74
2023/05/17 04:29:43;;;;;;;2.78;0.98;;;19.30;72.90;;;;;;5175464;27;45317;-74
2023/05/17 04:32:10;;;;;;;2.42;1.13;;;19.30;72.30;;;;;;5167014;27;46088;-74
2023/05/17 04:34:38;;;;;;;1.58;1.10;;;19.30;71.70;;;;;;5165438;27;45472;-73
2023/05/17 04:37:05;;;;;;;2.28;1.02;;;19.30;71.60;;;;;;5164841;27;45331;-73
2023/05/17 04:39:32;;;;;;;3.40;1.10;;;19.30;71.60;;;;;;5171817;27;45344;-73
2023/05/17 04:41:59;;;;;;;1.52;1.05;;;19.30;71.50;;;;;;5175190;27;47542;-74
2023/05/17 04:44:26;;;;;;;2.97;1.15;;;19.30;71.00;;;;;;5170544;27;45825;-74
2023/05/17 04:46:53;;;;;;;5.63;1.08;;;19.30;71.20;;;;;;5166911;27;45531;-74
2023/05/17 04:49:20;;;;;;;4.90;1.10;;;19.30;70.50;;;;;;5159161;27;45587;-74
2023/05/17 04:51:48;;;;;;;3.78;1.10;;;19.30;71.00;;;;;;5163136;27;46560;-74
2023/05/17 04:54:14;;;;;;;3.95;1.20;;;19.30;71.70;;;;;;5156552;27;45275;-74
2023/05/17 04:56:41;;;;;;;3.00;1.30;;;19.30;72.50;;;;;;5165077;27;45331;-74
2023/05/17 04:59:08;;;;;;;2.05;1.00;;;19.30;72.80;;;;;;5165769;27;45315;-73
2023/05/17 05:01:35;;;;;;;1.88;1.17;;;19.30;73.10;;;;;;5159849;27;45345;-74
2023/05/17 05:04:05;;;;;;;2.72;1.10;;;19.40;73.20;;;;;;5157400;27;45601;-74
2023/05/17 05:06:32;;;;;;;2.67;1.13;;;19.40;73.50;;;;;;5157615;27;45635;-73
2023/05/17 05:09:00;;;;;;;3.75;1.10;;;19.30;73.50;;;;;;5157024;27;45543;-73
2023/05/17 05:11:27;;;;;;;2.78;1.10;;;19.30;73.40;;;;;;5163190;27;47507;-74
2023/05/17 05:13:54;;;;;;;2.90;1.13;;;19.40;73.40;;;;;;5163286;27;46291;-74
2023/05/17 05:16:21;;;;;;;4.47;1.60;;;19.40;73.40;;;;;;5161484;27;45520;-74
2023/05/17 05:18:47;;;;;;;3.22;1.27;;;19.40;72.20;;;;;;5155953;27;45602;-74
2023/05/17 05:21:14;;;;;;;1.67;1.00;;;19.40;71.80;;;;;;5161911;27;45285;-74
2023/05/17 05:23:41;;;;;;;4.60;1.05;;;19.30;71.70;;;;;;5162264;27;45355;-74
2023/05/17 05:26:09;;;;;;;4.20;1.17;;;19.40;71.90;;;;;;5162891;27;45417;-73
2023/05/17 05:28:36;;;;;;;2.42;1.17;;;19.30;71.80;;;;;;5166168;27;45755;-74
2023/05/17 05:31:03;;;;;;;2.15;1.13;;;19.30;71.50;;;;;;5162339;27;48163;-74
2023/05/17 05:33:30;;;;;;;3.67;1.20;;;19.30;71.30;;;;;;5164326;27;45851;-73
2023/05/17 05:35:57;;;;;;;5.13;1.17;;;19.40;71.40;;;;;;5163877;27;45431;-73
2023/05/17 05:38:24;;;;;;;4.05;1.50;;;19.30;71.50;;;;;;5164554;27;45283;-73
2023/05/17 05:40:51;;;;;;;3.65;1.30;;;19.40;71.90;;;;;;5162328;27;45456;-73
2023/05/17 05:43:19;;;;;;;4.15;1.58;;;19.40;72.70;;;;;;5163887;27;45415;-73
2023/05/17 05:45:46;;;;;;;5.55;1.40;;;19.30;72.60;;;;;;5162340;27;45526;-73
2023/05/17 05:48:13;;;;;;;3.22;1.05;;;19.40;73.10;;;;;;5163129;27;45679;-73
2023/05/17 05:50:41;;;;;;;2.65;1.10;;;19.40;73.10;;;;;;5157388;27;46728;-72
2023/05/17 05:53:08;;;;;;;3.45;1.45;;;19.40;73.50;;;;;;5163063;27;45529;-73
2023/05/17 05:55:35;;;;;;;5.30;1.20;;;19.40;73.30;;;;;;5164998;27;45489;-72
2023/05/17 05:58:01;;;;;;;2.60;1.17;;;19.40;72.20;;;;;;5163609;27;45254;-73
2023/05/17 06:00:29;;;;;;;5.40;1.40;;;19.40;72.00;;;;;;5172337;27;46396;-73
2023/05/17 06:02:56;;;;;;;4.00;1.50;;;19.40;71.90;;;;;;5159047;27;45577;-74
2023/05/17 06:05:23;;;;;;;1.88;1.20;;;19.40;71.80;;;;;;5160119;27;45502;-74
2023/05/17 06:07:50;;;;;;;3.80;1.50;;;19.40;71.20;;;;;;5162837;27;45539;-74
2023/05/17 06:10:17;;;;;;;5.63;1.73;;;19.40;70.80;;;;;;5157153;27;45449;-73
2023/05/17 06:12:44;;;;;;;3.63;1.60;;;19.40;70.80;;;;;;5162345;27;45400;-73
2023/05/17 06:15:11;;;;;;;4.30;1.35;;;19.40;70.80;;;;;;5163823;27;45366;-72
2023/05/17 06:17:39;;;;;;;4.88;1.60;;;19.40;71.40;;;;;;5160572;27;45622;-73
2023/05/17 06:20:07;;;;;;;4.78;1.67;;;19.40;71.00;;;;;;5154885;27;47292;-74
2023/05/17 06:22:34;;;;;;;3.53;1.60;;;19.40;70.60;;;;;;5158331;27;45890;-73
2023/05/17 06:25:01;;;;;;;4.90;1.60;;;19.50;71.00;;;;;;5164284;27;45477;-73
2023/05/17 06:27:27;;;;;;;3.78;1.60;;;19.40;71.10;;;;;;5161661;27;45383;-73
2023/05/17 06:29:54;;;;;;;4.32;1.23;;;19.40;70.80;;;;;;5162269;27;45558;-73
2023/05/17 06:32:21;;;;;;;2.95;1.50;;;19.40;70.70;;;;;;5155556;27;45581;-72
2023/05/17 06:34:49;;;;;;;3.92;1.58;;;19.40;70.70;;;;;;5167551;27;45249;-73
2023/05/17 06:37:16;;;;;;;3.97;1.40;;;19.40;71.20;;;;;;5162687;27;45430;-73
2023/05/17 06:39:42;;;;;;;4.18;1.63;;;19.40;71.40;;;;;;5165829;27;47336;-73
2023/05/17 06:42:09;;;;;;;3.42;1.30;;;19.40;71.70;;;;;;5166425;27;45353;-73
2023/05/17 06:44:36;;;;;;;3.72;1.30;;;19.40;71.90;;;;;;5159766;27;45354;-73
2023/05/17 06:47:03;;;;;;;4.75;1.50;;;19.40;72.10;;;;;;5170598;27;45448;-73
2023/05/17 06:49:29;;;;;;;3.85;1.27;;;19.40;72.20;;;;;;5166318;27;47303;-73
2023/05/17 06:52:02;;;;;;;4.50;1.50;;;19.40;72.20;;;;;;5164957;27;45330;-73
2023/05/17 06:54:29;;;;;;;4.35;1.30;;;19.40;72.10;;;;;;5159115;27;45308;-73
2023/05/17 06:56:59;;;;;;;3.60;1.40;;;19.40;72.00;;;;;;5166284;27;45433;-73
2023/05/17 06:59:26;;;;;;;4.18;1.23;;;19.30;70.70;;;;;;5164984;27;47889;-74
2023/05/17 07:01:53;;;;;;;4.97;1.65;;;19.30;70.10;;;;;;5161285;27;45717;-74
2023/05/17 07:04:20;;;;;;;4.30;1.38;;;19.30;69.40;;;;;;5159699;27;45332;-74
2023/05/17 07:06:47;;;;;;;5.20;1.90;;;19.30;68.90;;;;;;5168357;27;45446;-73
2023/05/17 07:09:16;;;;;;;5.93;2.15;;;19.30;68.10;;;;;;5157889;27;48221;-74
2023/05/17 07:11:42;;;;;;;5.45;1.73;;;19.30;67.70;;;;;;5149880;27;45947;-74
2023/05/17 07:14:09;;;;;;;5.07;1.55;;;19.30;67.10;;;;;;5158263;27;45366;-73
2023/05/17 07:16:36;;;;;;;3.53;1.55;;;19.30;67.10;;;;;;5167653;27;45540;-73
2023/05/17 07:19:03;;;;;;;3.42;1.45;;;19.20;66.70;;;;;;5162694;27;47718;-73
2023/05/17 07:21:30;;;;;;;3.55;1.30;;;19.20;66.50;;;;;;5168356;27;45998;-74
2023/05/17 07:23:56;;;;;;;4.32;1.30;;;19.20;66.40;;;;;;5167071;27;45360;-74
2023/05/17 07:26:25;;;;;;;4.53;1.20;;;19.30;66.90;;;;;;5165648;27;45539;-74
2023/05/17 07:28:51;;;;;;;3.90;1.13;;;19.30;67.50;;;;;;5161485;27;46633;-74
2023/05/17 07:31:18;;;;;;;4.05;1.27;;;19.30;68.20;;;;;;5159330;27;45386;-74
2023/05/17 07:33:45;;;;;;;4.07;1.20;;;19.30;68.30;;;;;;5165766;27;45337;-74
2023/05/17 07:36:12;;;;;;;4.55;1.50;;;19.30;68.60;;;;;;5162319;27;45475;-74
2023/05/17 07:38:38;;;;;;;3.97;1.42;;;19.30;69.10;;;;;;5167758;27;45751;-74
2023/05/17 07:41:08;;;;;;;3.70;1.40;;;19.30;68.90;;;;;;5166424;27;45290;-74
2023/05/17 07:43:37;;;;;;;4.70;1.20;;;19.30;69.00;;;;;;5164814;27;45517;-74
2023/05/17 07:46:04;;;;;;;4.43;1.05;;;19.30;69.10;;;;;;5156242;27;45586;-74
2023/05/17 07:48:31;;;;;;;2.97;1.35;;;19.30;68.70;;;;;;5160489;27;45401;-74
2023/05/17 07:50:58;;;;;;;4.03;1.38;;;19.30;67.80;;;;;;5165003;27;45485;-74
2023/05/17 07:53:25;;;;;;;3.28;1.10;;;19.30;67.60;;;;;;5158400;27;45423;-74
2023/05/17 07:55:51;;;;;;;4.25;1.00;;;19.30;67.10;;;;;;5162108;27;45440;-74
2023/05/17 07:58:18;;;;;;;3.80;1.23;;;19.30;66.90;;;;;;5166501;27;46395;-74
2023/05/17 08:00:48;;;;;;;4.13;1.13;;;19.30;66.50;;;;;;5151944;27;45370;-74
2023/05/17 08:03:14;;;;;;;2.90;1.10;;;19.30;66.70;;;;;;5165607;27;45325;-74
2023/05/17 08:05:41;;;;;;;5.00;1.17;;;19.40;66.70;;;;;;5155556;27;45310;-74
2023/05/17 08:08:08;;;;;;;3.13;1.00;;;19.40;66.80;;;;;;5158321;27;47482;-74
2023/05/17 08:10:36;;;;;;;5.03;0.95;;;19.30;66.70;;;;;;5158711;27;45355;-74
2023/05/17 08:13:03;;;;;;;3.40;1.10;;;19.40;66.80;;;;;;5159742;27;45493;-74
2023/05/17 08:15:30;;;;;;;2.40;1.20;;;19.40;67.10;;;;;;5156473;27;45284;-74
2023/05/17 08:17:58;;;;;;;2.53;1.00;;;19.40;67.60;;;;;;5157459;27;46426;-74
2023/05/17 08:20:25;;;;;;;2.38;1.00;;;19.40;68.00;;;;;;5172980;27;45744;-74
2023/05/17 08:22:52;;;;;;;4.88;0.90;;;19.40;68.20;;;;;;5153454;27;45453;-74
2023/05/17 08:25:19;;;;;;;3.83;1.10;;;19.40;68.50;;;;;;5164961;27;45414;-74
2023/05/17 08:27:46;;;;;;;3.28;0.80;;;19.40;69.10;;;;;;5164533;27;47586;-74
2023/05/17 08:30:14;;;;;;;4.20;1.23;;;19.40;69.00;;;;;;5153799;27;45355;-73
2023/05/17 08:32:41;;;;;;;3.28;1.20;;;19.40;69.10;;;;;;5155239;27;45281;-74
2023/05/17 08:35:09;;;;;;;2.88;1.25;;;19.40;69.20;;;;;;5162669;27;45541;-74
2023/05/17 08:37:36;;;;;;;3.28;1.10;;;19.40;68.80;;;;;;5165684;27;47911;-74
2023/05/17 08:40:03;;;;;;;3.08;1.27;;;19.40;68.00;;;;;;5160564;27;45435;-74
2023/05/17 08:42:30;;;;;;;3.33;0.95;;;19.40;67.60;;;;;;5164368;27;45385;-74
2023/05/17 08:44:57;;;;;;;3.35;1.00;;;19.40;67.50;;;;;;5160603;27;45259;-74
2023/05/17 08:47:28;;;;;;;4.28;1.30;;;19.40;67.20;;;;;;5158852;27;47905;-73
2023/05/17 08:49:59;;;;;;;2.47;0.80;;;19.40;67.10;;;;;;5160832;27;46159;-74
2023/05/17 08:52:31;;;;;;;1.73;0.63;;;19.40;67.00;;;;;;5166578;27;45470;-74
2023/05/17 08:54:59;;;;;;;2.28;0.88;;;19.40;66.60;;;;;;5166729;27;45502;-74
2023/05/17 08:57:28;;;;;;;4.80;1.10;;;19.40;66.80;;;;;;5159065;27;46418;-74
2023/05/17 08:59:55;;;;;;;2.70;0.77;;;19.40;66.80;;;;;;5161520;27;45394;-73
2023/05/17 09:02:24;;;;;;;3.22;1.13;;;19.40;66.70;;;;;;5157611;27;45325;-73
2023/05/17 09:04:54;;;;;;;4.18;1.10;;;19.40;67.20;;;;;;5166807;27;45547;-73
2023/05/17 09:07:21;;;;;;;2.50;0.82;;;19.40;67.70;;;;;;5164661;27;47918;-73
2023/05/17 09:09:52;;;;;;;2.33;0.95;;;19.40;68.20;;;;;;5162882;27;45463;-73
2023/05/17 09:12:18;;;;;;;2.40;0.80;;;19.40;68.30;;;;;;5161844;27;45264;-74
2023/05/17 09:14:45;;;;;;;2.60;0.95;;;19.40;68.50;;;;;;5164843;27;45340;-73
2023/05/17 09:17:16;;;;;;;3.75;1.05;;;19.40;68.60;;;;;;5163903;27;46171;-73
2023/05/17 09:19:44;;;;;;;4.18;1.08;;;19.40;68.90;;;;;;5160873;27;45523;-74
2023/05/17 09:22:13;;;;;;;3.38;1.15;;;19.40;68.90;;;;;;5160934;27;45413;-73
2023/05/17 09:24:41;;;;;;;3.53;1.10;;;19.50;69.10;;;;;;5154777;27;45529;-73
2023/05/17 09:27:14;;;;;;;3.05;1.10;;;19.40;68.60;;;;;;5156352;27;46386;-73
2023/05/17 09:29:41;;;;;;;3.08;0.90;;;19.40;67.50;;;;;;5157790;27;45598;-74
2023/05/17 09:32:15;;;;;;;3.13;1.13;;;19.40;67.10;;;;;;5156219;27;45335;-73
2023/05/17 09:34:44;;;;;;;3.45;0.90;;;19.40;67.40;;;;;;5164481;27;45704;-73
2023/05/17 09:37:15;;;;;;;3.17;0.75;;;19.40;67.80;;;;;;5165407;27;48626;-74
2023/05/17 09:39:44;;;;;;;3.33;1.20;;;19.40;68.30;;;;;;5165088;27;45380;-73
2023/05/17 09:42:13;;;;;;;2.35;0.80;;;19.40;68.40;;;;;;5152870;27;45274;-73
2023/05/17 09:44:48;;;;;;;4.55;0.70;;;19.40;68.50;;;;;;5160270;27;45423;-73
2023/05/17 09:47:25;;;;;;;2.40;0.77;;;19.40;68.20;;;;;;5155273;27;46841;-74
2023/05/17 09:49:53;;;;;;;3.78;0.93;;;19.40;68.60;;;;;;5156743;27;45738;-74
2023/05/17 09:52:20;;;;;;;3.10;0.90;;;19.40;68.70;;;;;;5160312;27;45381;-74
2023/05/17 09:54:54;;;;;;;3.63;0.93;;;19.50;68.70;;;;;;5154762;27;45291;-73
2023/05/17 09:57:24;;;;;;;4.88;1.00;;;19.40;68.60;;;;;;5153365;27;47529;-74
2023/05/17 09:59:54;;;;;;;3.00;1.00;;;19.40;68.60;;;;;;5156255;27;45566;-74
2023/05/17 10:02:22;;;;;;;4.88;1.08;;;19.40;68.40;;;;;;5149997;27;45278;-74
2023/05/17 10:04:51;;;;;;;2.97;0.80;;;19.40;67.80;;;;;;5155899;27;45428;-74
2023/05/17 10:07:21;;;;;;;3.92;1.00;;;19.40;67.40;;;;;;5165369;27;45742;-73
2023/05/17 10:09:49;;;;;;;2.50;0.70;;;19.40;66.80;;;;;;5153301;27;45544;-74
2023/05/17 10:12:18;;;;;;;3.40;1.00;;;19.40;67.00;;;;;;5161510;27;45440;-74
2023/05/17 10:14:46;;;;;;;3.08;0.90;;;19.40;66.60;;;;;;5163388;27;45580;-74
2023/05/17 10:17:14;;;;;;;2.63;0.88;;;19.40;66.20;;;;;;5156659;27;48102;-73
2023/05/17 10:19:41;;;;;;;3.47;0.88;;;19.40;65.70;;;;;;5161060;27;45558;-74
2023/05/17 10:22:09;;;;;;;3.60;0.82;;;19.40;65.50;;;;;;5168618;27;45447;-74
2023/05/17 10:24:37;;;;;;;1.42;0.70;;;19.40;65.70;;;;;;5158702;27;45462;-73
2023/05/17 10:27:07;;;;;;;3.15;0.80;;;19.40;66.80;;;;;;5154917;27;46533;-74
2023/05/17 10:29:34;;;;;;;1.40;0.60;;;19.40;66.70;;;;;;5162709;27;45891;-73
2023/05/17 10:32:06;;;;;;;3.05;1.33;;;19.40;67.20;;;;;;5162625;27;45384;-74
2023/05/17 10:34:35;;;;;;;4.30;1.05;;;19.50;67.10;;;;;;5137591;27;45311;-73
2023/05/17 10:37:03;;;;;;;3.70;1.08;;;19.40;67.30;;;;;;5142167;27;49098;-74
2023/05/17 10:39:32;;;;;;;2.92;0.90;;;19.40;67.40;;;;;;5142650;27;45405;-73
2023/05/17 10:42:02;;;;;;;3.00;1.00;;;19.40;67.10;;;;;;5134762;27;45486;-74
2023/05/17 10:44:31;;;;;;;2.70;0.80;;;19.40;67.30;;;;;;5139467;27;45570;-74
2023/05/17 10:46:59;;;;;;;2.97;0.75;;;19.40;67.30;;;;;;5126942;27;47192;-73
2023/05/17 10:49:31;;;;;;;2.35;0.98;;;19.40;67.40;;;;;;5136140;27;45498;-74
2023/05/17 10:51:58;;;;;;;1.80;0.80;;;19.40;67.50;;;;;;5138093;27;45304;-74
2023/05/17 10:54:35;;;;;;;3.85;0.90;;;19.40;67.30;;;;;;5128407;27;45881;-73
2023/05/17 10:57:04;;;;;;;3.03;0.80;;;19.40;66.90;;;;;;5135928;27;45661;-74
2023/05/17 10:59:34;;;;;;;3.80;1.10;;;19.40;66.40;;;;;;5127191;27;45474;-74
2023/05/17 11:02:03;;;;;;;2.20;0.75;;;19.40;66.20;;;;;;5139922;27;45284;-74
2023/05/17 11:04:35;;;;;;;3.75;0.77;;;19.40;65.80;;;;;;5135599;27;45410;-74
2023/05/17 11:07:26;;;;;;;2.45;0.68;;;19.40;65.30;;;;;;5134845;27;46797;-74
2023/05/17 11:09:54;;;;;;;3.85;0.80;;;19.40;64.60;;;;;;5132373;27;45493;-73
2023/05/17 11:12:33;;;;;;;2.88;0.77;;;19.40;64.70;;;;;;5134878;27;45426;-74
2023/05/17 11:15:00;;;;;;;2.35;0.75;;;19.40;64.50;;;;;;5136709;27;45519;-73
2023/05/17 11:17:34;;;;;;;1.90;0.70;;;19.40;64.30;;;;;;5136458;27;47332;-74
2023/05/17 11:20:09;;;;;;;4.93;0.90;;;19.40;64.50;;;;;;5126653;27;45378;-74
2023/05/17 11:22:39;;;;;;;2.58;0.80;;;19.40;64.20;;;;;;5129118;27;45392;-74
2023/05/17 11:25:08;;;;;;;2.08;0.70;;;19.40;65.40;;;;;;5135433;27;45424;-73
2023/05/17 11:27:43;;;;;;;3.33;0.85;;;19.40;65.60;;;;;;5132495;27;45421;-73
2023/05/17 11:30:18;;;;;;;2.28;0.57;;;19.40;65.60;;;;;;5126619;27;45270;-74
2023/05/17 11:32:50;;;;;;;1.63;0.73;;;19.40;65.70;;;;;;5126351;27;45437;-73
2023/05/17 11:35:23;;;;;;;1.00;0.65;;;19.40;67.10;;;;;;5142169;27;45213;-74
2023/05/17 11:37:52;;;;;;;1.80;0.57;;;19.40;65.90;;;;;;5134719;27;46307;-74
2023/05/17 11:40:27;;;;;;;2.53;0.85;;;19.40;65.90;;;;;;5134070;27;45496;-73
2023/05/17 11:43:10;;;;;;;3.08;0.90;;;19.50;66.00;;;;;;5134876;27;45283;-74
2023/05/17 11:45:47;;;;;;;2.83;0.60;;;19.40;66.10;;;;;;5132319;27;45305;-74
2023/05/17 11:48:15;;;;;;;2.70;0.80;;;19.40;66.10;;;;;;5135616;27;45509;-73
2023/05/17 11:50:45;;;;;;;2.78;0.65;;;19.40;65.80;;;;;;5135009;27;45582;-74
2023/05/17 11:53:12;;;;;;;1.85;0.80;;;19.40;65.70;;;;;;5136511;27;45394;-73
2023/05/17 11:55:40;;;;;;;3.17;0.60;;;19.40;65.40;;;;;;5143250;27;45615;-74
2023/05/17 11:58:09;;;;;;;1.17;0.60;;;19.50;65.00;;;;;;5132851;27;47027;-74
2023/05/17 12:00:37;;;;;;;1.48;0.63;;;19.40;64.90;;;;;;5125577;27;45336;-73
2023/05/17 12:03:18;;;;;;;3.53;0.93;;;19.40;65.00;;;;;;5133147;27;45326;-73
2023/05/17 12:05:47;;;;;;;2.58;0.88;;;19.40;64.70;;;;;;5141272;27;45284;-74
2023/05/17 12:08:16;;;;;;;2.72;0.73;;;19.40;64.00;;;;;;5132735;27;48647;-74
2023/05/17 12:10:46;;;;;;;1.77;0.75;;;19.40;64.10;;;;;;5137014;27;45957;-74
2023/05/17 12:13:13;;;;;;;1.17;0.52;;;19.40;64.00;;;;;;5132269;27;45368;-74
2023/05/17 12:15:41;;;;;;;2.55;0.73;;;19.40;63.30;;;;;;5125566;27;45319;-73
2023/05/17 12:18:08;;;;;;;1.63;0.50;;;19.50;63.00;;;;;;5126093;27;46268;-74
2023/05/17 12:20:36;;;;;;;3.03;0.70;;;19.50;64.20;;;;;;5125584;27;45451;-74
2023/05/17 12:23:05;;;;;;;3.65;0.73;;;19.40;64.90;;;;;;5135788;27;45443;-74
2023/05/17 12:25:31;;;;;;;2.33;0.50;;;19.50;64.40;;;;;;5143740;27;45263;-74
2023/05/17 12:28:17;;;;;;;3.13;0.75;;;19.50;64.80;;;;;;5127693;27;46326;-73
2023/05/17 12:30:44;;;;;;;1.90;0.57;;;19.50;64.90;;;;;;5142144;27;45622;-73
2023/05/17 12:33:11;;;;;;;3.15;0.82;;;19.40;65.00;;;;;;5133221;27;45366;-74
2023/05/17 12:35:38;;;;;;;2.15;0.88;;;19.40;64.80;;;;;;5125503;27;45495;-73
2023/05/17 12:38:06;;;;;;;2.47;0.80;;;19.40;65.10;;;;;;5135583;27;46516;-74
2023/05/17 12:40:33;;;;;;;1.00;0.50;;;19.50;65.10;;;;;;5135196;27;46080;-74
2023/05/17 12:43:03;;;;;;;3.88;0.85;;;19.50;65.20;;;;;;5130978;27;45461;-74
2023/05/17 12:45:30;;;;;;;2.13;0.60;;;19.50;65.00;;;;;;5137769;27;45581;-74
2023/05/17 12:47:57;;;;;;;1.05;0.50;;;19.50;64.70;;;;;;5127291;27;47514;-74
2023/05/17 12:50:29;;;;;;;2.63;0.68;;;19.50;64.50;;;;;;5152264;27;45808;-74
2023/05/17 12:52:56;;;;;;;1.75;0.70;;;19.50;64.30;;;;;;5146099;27;45383;-74